createdAt,value
2019-05-15T00:02:10.813Z,2.15
2019-05-15T00:04:43.579Z,1.85
2019-05-15T00:07:18.309Z,2.10
2019-05-15T00:09:52.197Z,2.10
2019-05-15T00:12:25.088Z,1.90
2019-05-15T00:14:58.896Z,2.27
2019-05-15T00:17:32.247Z,1.90
2019-05-15T00:20:05.894Z,1.87
2019-05-15T00:22:39.113Z,1.95
2019-05-15T00:25:12.727Z,1.82
2019-05-15T00:27:46.218Z,2.52
2019-05-15T00:30:19.259Z,2.55
2019-05-15T00:32:53.209Z,2.40
2019-05-15T00:35:28.669Z,2.30
2019-05-15T00:38:02.325Z,1.92
2019-05-15T00:40:39.170Z,2.22
2019-05-15T00:43:11.169Z,2.00
2019-05-15T00:45:44.513Z,2.17
2019-05-15T00:48:18.422Z,2.42
2019-05-15T00:50:51.472Z,2.20
2019-05-15T00:53:24.467Z,2.12
2019-05-15T00:55:58.042Z,2.17
2019-05-15T00:58:31.049Z,1.90
2019-05-15T01:01:03.659Z,2.20
2019-05-15T01:03:38.663Z,2.12
2019-05-15T01:06:11.471Z,2.35
2019-05-15T01:08:45.026Z,1.90
2019-05-15T01:11:19.214Z,2.10
2019-05-15T01:13:52.384Z,2.30
2019-05-15T01:16:28.124Z,2.12
2019-05-15T01:19:01.447Z,2.10
2019-05-15T01:21:35.135Z,2.20
2019-05-15T01:24:08.493Z,2.60
2019-05-15T01:26:42.303Z,2.42
2019-05-15T01:29:14.876Z,2.33
2019-05-15T01:31:49.053Z,2.02
2019-05-15T01:34:22.480Z,2.37
2019-05-15T01:36:55.796Z,2.42
2019-05-15T01:39:29.721Z,2.52
2019-05-15T01:42:02.855Z,2.42
2019-05-15T01:44:35.893Z,2.72
2019-05-15T01:47:09.487Z,2.70
2019-05-15T01:49:44.392Z,2.20
2019-05-15T01:52:18.733Z,2.27
2019-05-15T01:54:51.141Z,2.50
2019-05-15T01:57:24.471Z,2.60
2019-05-15T02:00:00.563Z,2.20
2019-05-15T02:02:32.827Z,2.27
2019-05-15T02:05:05.501Z,2.40
2019-05-15T02:07:39.422Z,2.20
2019-05-15T02:10:12.376Z,2.40
2019-05-15T02:12:48.002Z,2.33
2019-05-15T02:15:21.069Z,2.58
2019-05-15T02:17:54.477Z,2.30
2019-05-15T02:20:29.123Z,2.55
2019-05-15T02:23:02.616Z,2.50
2019-05-15T02:25:36.110Z,2.42
2019-05-15T02:28:09.604Z,3.10
2019-05-15T02:30:44.036Z,1.92
2019-05-15T02:33:18.914Z,1.87
2019-05-15T02:35:52.541Z,2.33
2019-05-15T02:38:25.279Z,2.20
2019-05-15T02:40:59.269Z,2.72
2019-05-15T02:43:32.333Z,2.00
2019-05-15T02:46:10.213Z,1.80
2019-05-15T02:48:42.533Z,2.80
2019-05-15T02:51:19.356Z,2.20
2019-05-15T02:53:51.789Z,2.70
2019-05-15T02:56:25.317Z,2.40
2019-05-15T02:58:59.990Z,2.65
2019-05-15T03:01:34.095Z,2.30
2019-05-15T03:04:09.268Z,2.70
2019-05-15T03:06:42.027Z,2.37
2019-05-15T03:09:15.093Z,2.62
2019-05-15T03:11:49.408Z,1.98
2019-05-15T03:14:23.352Z,2.40
2019-05-15T03:16:59.511Z,2.45
2019-05-15T03:19:31.325Z,2.60
2019-05-15T03:22:04.724Z,2.77
2019-05-15T03:24:39.606Z,2.65
2019-05-15T03:27:12.682Z,2.58
2019-05-15T03:29:49.158Z,2.35
2019-05-15T03:32:32.162Z,2.50
2019-05-15T03:35:03.565Z,2.30
2019-05-15T03:37:33.570Z,2.50
2019-05-15T03:40:06.333Z,2.42
2019-05-15T03:42:39.575Z,2.27
2019-05-15T03:45:13.041Z,1.85
2019-05-15T03:47:48.968Z,2.17
2019-05-15T03:50:21.356Z,2.55
2019-05-15T03:52:54.768Z,2.70
2019-05-15T03:55:29.657Z,2.10
2019-05-15T03:58:02.335Z,2.90
2019-05-15T04:00:35.446Z,2.60
2019-05-15T04:03:10.937Z,2.83
2019-05-15T04:05:44.251Z,2.10
2019-05-15T04:08:19.526Z,2.30
2019-05-15T04:10:52.832Z,2.30
2019-05-15T04:13:29.741Z,3.17
2019-05-15T04:16:01.483Z,1.92
2019-05-15T04:18:34.470Z,2.05
2019-05-15T04:21:09.162Z,1.82
2019-05-15T04:23:44.688Z,2.25
2019-05-15T04:26:19.447Z,2.05
2019-05-15T04:28:55.244Z,2.40
2019-05-15T04:31:35.515Z,2.15
2019-05-15T04:34:03.095Z,2.58
2019-05-15T04:36:39.631Z,3.00
2019-05-15T04:39:12.226Z,2.87
2019-05-15T04:41:45.738Z,2.47
2019-05-15T04:44:19.393Z,3.00
2019-05-15T04:46:52.857Z,1.90
2019-05-15T04:49:28.774Z,2.40
2019-05-15T04:52:03.741Z,2.87
2019-05-15T04:54:39.910Z,2.20
2019-05-15T04:57:12.994Z,2.13
2019-05-15T04:59:45.990Z,2.80
2019-05-15T05:02:26.870Z,2.23
2019-05-15T05:04:54.280Z,1.87
2019-05-15T05:07:29.568Z,3.03
2019-05-15T05:10:02.020Z,2.20
2019-05-15T05:12:35.662Z,2.50
2019-05-15T05:15:09.237Z,2.20
2019-05-15T05:17:42.838Z,2.70
2019-05-15T05:20:17.853Z,2.27
2019-05-15T05:22:51.066Z,4.97
2019-05-15T05:25:24.601Z,4.20
2019-05-15T05:27:58.378Z,2.40
2019-05-15T05:30:31.294Z,3.20
2019-05-15T05:33:04.461Z,2.10
2019-05-15T05:35:38.773Z,2.15
2019-05-15T05:38:12.162Z,2.63
2019-05-15T05:40:45.358Z,2.30
2019-05-15T05:43:18.535Z,2.62
2019-05-15T05:45:51.857Z,1.95
2019-05-15T05:48:25.437Z,2.75
2019-05-15T05:50:58.737Z,2.30
2019-05-15T05:53:31.861Z,2.15
2019-05-15T05:56:05.216Z,2.65
2019-05-15T05:58:39.107Z,1.80
2019-05-15T06:01:13.066Z,1.77
2019-05-15T06:03:46.146Z,2.35
2019-05-15T06:06:19.898Z,1.77
2019-05-15T06:08:52.832Z,2.40
2019-05-15T06:11:27.776Z,1.95
2019-05-15T06:14:00.880Z,1.98
2019-05-15T06:16:34.268Z,2.10
2019-05-15T06:19:08.245Z,1.62
2019-05-15T06:21:53.773Z,2.27
2019-05-15T06:24:18.074Z,2.47
2019-05-15T06:26:51.060Z,1.15
2019-05-15T06:29:24.985Z,1.30
2019-05-15T06:31:58.766Z,1.30
2019-05-15T06:34:31.996Z,0.85
2019-05-15T06:37:08.192Z,1.30
2019-05-15T06:39:39.896Z,1.27
2019-05-15T06:42:13.253Z,1.27
2019-05-15T06:44:48.216Z,1.10
2019-05-15T06:47:20.776Z,1.32
2019-05-15T06:49:54.192Z,1.57
2019-05-15T06:52:28.495Z,1.10
2019-05-15T06:55:01.678Z,1.12
2019-05-15T06:57:35.629Z,1.22
2019-05-15T07:00:09.490Z,0.95
2019-05-15T07:02:42.882Z,1.07
2019-05-15T07:05:18.419Z,0.95
2019-05-15T07:07:51.518Z,1.00
2019-05-15T07:10:24.632Z,1.00
2019-05-15T07:12:58.529Z,1.37
2019-05-15T07:15:31.974Z,1.00
2019-05-15T07:18:05.440Z,0.75
2019-05-15T07:20:39.257Z,1.10
2019-05-15T07:23:13.442Z,1.47
2019-05-15T07:25:46.015Z,1.02
2019-05-15T07:28:18.695Z,1.30
2019-05-15T07:30:51.975Z,1.47
2019-05-15T07:33:38.794Z,1.47
2019-05-15T07:36:01.647Z,1.37
2019-05-15T07:38:34.635Z,1.10
2019-05-15T07:41:10.270Z,1.05
2019-05-15T07:43:43.465Z,1.17
2019-05-15T07:46:18.501Z,1.17
2019-05-15T07:48:51.505Z,1.10
2019-05-15T07:51:24.789Z,1.30
2019-05-15T07:53:58.711Z,1.22
2019-05-15T07:56:32.516Z,1.20
2019-05-15T07:59:04.878Z,2.05
2019-05-15T08:01:38.753Z,1.35
2019-05-15T08:04:24.968Z,1.30
2019-05-15T08:06:48.890Z,1.30
2019-05-15T08:09:21.733Z,1.02
2019-05-15T08:11:54.400Z,1.05
2019-05-15T08:14:29.128Z,1.90
2019-05-15T08:17:01.900Z,1.20
2019-05-15T08:19:38.354Z,0.95
2019-05-15T08:22:15.023Z,1.35
2019-05-15T08:24:48.387Z,1.30
2019-05-15T08:27:23.688Z,1.52
2019-05-15T08:29:58.118Z,2.00
2019-05-15T08:32:31.252Z,1.50
2019-05-15T08:35:04.648Z,2.20
2019-05-15T08:37:38.584Z,2.05
2019-05-15T08:40:12.387Z,1.25
2019-05-15T08:42:45.442Z,1.42
2019-05-15T08:45:19.137Z,1.37
2019-05-15T08:47:52.607Z,1.35
2019-05-15T08:50:28.633Z,1.72
2019-05-15T08:53:01.623Z,1.50
2019-05-15T08:55:34.910Z,1.75
2019-05-15T08:58:13.706Z,1.60
2019-05-15T09:00:45.185Z,2.22
2019-05-15T09:03:24.489Z,1.60
2019-05-15T09:06:05.199Z,1.40
2019-05-15T09:08:41.798Z,1.65
2019-05-15T09:11:19.604Z,1.20
2019-05-15T09:13:59.562Z,1.85
2019-05-15T09:16:38.780Z,1.25
2019-05-15T09:19:20.991Z,1.50
2019-05-15T09:21:54.153Z,1.25
2019-05-15T09:24:41.628Z,1.50
2019-05-15T09:27:19.910Z,1.30
2019-05-15T09:29:54.832Z,1.82
2019-05-15T09:32:28.559Z,2.00
2019-05-15T09:35:08.167Z,1.42
2019-05-15T09:37:40.688Z,1.60
2019-05-15T09:40:13.775Z,1.90
2019-05-15T09:42:48.924Z,2.27
2019-05-15T09:45:24.882Z,1.50
2019-05-15T09:48:04.156Z,1.65
2019-05-15T09:50:52.936Z,1.90
2019-05-15T09:53:30.434Z,1.40
2019-05-15T09:56:04.896Z,1.33
2019-05-15T09:58:42.395Z,1.80
2019-05-15T10:01:19.821Z,1.83
2019-05-15T10:04:00.230Z,1.43
2019-05-15T10:06:39.072Z,1.57
2019-05-15T10:09:20.291Z,1.73
2019-05-15T10:12:09.094Z,1.70
2019-05-15T10:15:11.319Z,1.30
2019-05-15T10:17:59.976Z,1.37
2019-05-15T10:20:39.894Z,1.43
2019-05-15T10:23:30.095Z,2.10
2019-05-15T10:26:14.378Z,2.30
2019-05-15T10:28:58.439Z,2.00
2019-05-15T10:31:53.653Z,1.90
2019-05-15T10:34:33.435Z,2.03
2019-05-15T10:37:22.721Z,2.17
2019-05-15T10:40:09.105Z,1.97
2019-05-15T10:42:49.979Z,1.70
2019-05-15T10:45:26.332Z,1.93
2019-05-15T10:48:13.965Z,1.80
2019-05-15T10:50:51.415Z,2.17
2019-05-15T10:53:40.625Z,1.57
2019-05-15T10:56:18.716Z,2.00
2019-05-15T10:58:54.021Z,1.67
2019-05-15T11:01:31.526Z,2.50
2019-05-15T11:04:05.630Z,2.17
2019-05-15T11:06:38.546Z,1.97
2019-05-15T11:09:12.335Z,2.27
2019-05-15T11:11:45.676Z,2.27
2019-05-15T11:14:21.143Z,2.30
2019-05-15T11:16:56.019Z,2.90
2019-05-15T11:19:36.048Z,2.23
2019-05-15T11:22:08.903Z,2.60
2019-05-15T11:24:41.777Z,1.73
2019-05-15T11:27:15.294Z,2.30
2019-05-15T11:29:47.979Z,1.67
2019-05-15T11:32:21.659Z,2.20
2019-05-15T11:34:54.695Z,1.83
2019-05-15T11:37:28.342Z,1.80
2019-05-15T11:40:01.245Z,2.30
2019-05-15T11:42:34.301Z,1.73
2019-05-15T11:45:09.033Z,1.80
2019-05-15T11:47:41.965Z,1.83
2019-05-15T11:50:15.075Z,1.57
2019-05-15T11:52:48.574Z,1.23
2019-05-15T11:55:22.000Z,1.60
2019-05-15T11:57:55.748Z,1.73
2019-05-15T12:00:30.299Z,1.80
2019-05-15T12:03:03.765Z,1.90
2019-05-15T12:05:38.599Z,1.60
2019-05-15T12:08:12.678Z,2.00
2019-05-15T12:10:46.391Z,1.73
2019-05-15T12:13:20.424Z,1.97
2019-05-15T12:15:53.646Z,1.97
2019-05-15T12:18:28.503Z,1.70
2019-05-15T12:21:00.975Z,1.90
2019-05-15T12:23:34.198Z,1.80
2019-05-15T12:26:09.145Z,1.83
2019-05-15T12:28:42.131Z,2.00
2019-05-15T12:31:15.132Z,1.57
2019-05-15T12:33:48.947Z,1.83
2019-05-15T12:36:45.455Z,2.20
2019-05-15T12:38:58.100Z,2.07
2019-05-15T12:59:41.183Z,1.50
2019-05-15T13:02:14.823Z,1.70
2019-05-15T13:04:47.859Z,1.80
2019-05-15T13:07:23.191Z,1.53
2019-05-15T13:10:00.344Z,1.60
2019-05-15T13:12:33.648Z,1.90
2019-05-15T13:15:08.863Z,2.03
2019-05-15T13:17:42.470Z,1.63
2019-05-15T13:20:18.302Z,1.47
2019-05-15T13:25:23.926Z,1.33
2019-05-15T13:27:58.064Z,1.60
2019-05-15T13:30:33.190Z,1.67
2019-05-15T13:33:10.119Z,1.50
2019-05-15T13:35:45.540Z,1.50
2019-05-15T13:38:21.351Z,1.70
2019-05-15T13:40:54.813Z,1.77
2019-05-15T13:43:30.647Z,1.83
2019-05-15T13:46:04.611Z,1.60
2019-05-15T13:48:42.602Z,1.83
2019-05-15T13:51:22.022Z,1.60
2019-05-15T13:53:50.263Z,1.77
2019-05-15T13:56:30.479Z,2.27
2019-05-15T13:59:03.498Z,1.80
2019-05-15T14:01:43.521Z,1.70
2019-05-15T14:04:19.080Z,1.50
2019-05-15T14:06:51.747Z,1.67
2019-05-15T14:09:33.337Z,1.53
2019-05-15T14:12:11.591Z,1.70
2019-05-15T14:14:41.584Z,1.50
2019-05-15T14:17:14.983Z,2.10
2019-05-15T14:19:50.340Z,1.80
2019-05-15T14:22:25.149Z,1.90
2019-05-15T14:25:14.504Z,2.20
2019-05-15T14:27:48.794Z,1.37
2019-05-15T14:30:29.233Z,1.60
2019-05-15T14:33:02.451Z,2.93
2019-05-15T14:35:37.910Z,3.10
2019-05-15T14:38:11.053Z,1.83
2019-05-15T14:40:49.195Z,2.47
2019-05-15T14:43:23.473Z,2.30
2019-05-15T14:45:58.707Z,1.90
2019-05-15T14:48:33.261Z,2.93
2019-05-15T14:51:19.059Z,3.00
2019-05-15T14:53:52.486Z,2.20
2019-05-15T14:56:29.391Z,2.10
2019-05-15T14:59:02.829Z,2.67
2019-05-15T15:01:38.752Z,1.80
2019-05-15T15:04:12.314Z,1.83
2019-05-15T15:06:48.722Z,1.60
2019-05-15T15:09:28.215Z,2.43
2019-05-15T15:12:00.033Z,2.30
2019-05-15T15:14:33.586Z,2.03
2019-05-15T15:17:10.940Z,1.40
2019-05-15T15:19:44.131Z,2.10
2019-05-15T15:22:20.054Z,2.03
2019-05-15T15:24:59.876Z,2.17
2019-05-15T15:27:32.008Z,1.80
2019-05-15T15:30:09.625Z,1.37
2019-05-15T15:32:42.137Z,1.50
2019-05-15T15:35:16.052Z,1.60
2019-05-15T15:37:51.061Z,2.00
2019-05-15T15:40:24.235Z,1.70
2019-05-15T15:43:02.057Z,1.50
2019-05-15T15:45:39.060Z,2.00
2019-05-15T15:48:11.900Z,1.93
2019-05-15T23:43:28.323Z,1.50
2019-05-15T23:46:01.634Z,1.57
2019-05-15T23:48:34.242Z,1.20
2019-05-15T23:51:08.510Z,1.62
2019-05-15T23:53:41.421Z,1.45
2019-05-15T23:56:14.486Z,1.32
2019-05-15T23:58:47.115Z,1.30
